Time;durP1;ratioP1;P1;durP2;ratioP2;P2;SDS_P1;SDS_P2;PMS_P1;PMS_P2;Temp;Humidity;BMP_temperature;BMP_pressure;BME280_temperature;BME280_humidity;BME280_pressure;Samples;Min_cycle;Max_cycle;Signal;HPM_P1;HPM_P2
2023/06/24 00:01:13;;;;;;;7.40;6.70;;;;;;;;;;4956033;29;20426;-78
2023/06/24 00:03:39;;;;;;;7.80;7.00;;;;;;;;;;4954223;29;20560;-79
2023/06/24 00:06:05;;;;;;;8.47;6.90;;;;;;;;;;4958365;28;20424;-78
2023/06/24 00:08:34;;;;;;;10.00;7.27;;;;;;;;;;4959410;29;20373;-78
2023/06/24 00:11:03;;;;;;;8.83;7.53;;;;;;;;;;4926779;29;20453;-78
2023/06/24 00:13:29;;;;;;;8.57;7.10;;;;;;;;;;4959452;29;20759;-77
2023/06/24 00:15:55;;;;;;;8.50;7.67;;;;;;;;;;4959854;29;20427;-75
2023/06/24 00:18:24;;;;;;;9.93;6.80;;;;;;;;;;4959567;29;20391;-78
2023/06/24 00:20:50;;;;;;;10.93;8.50;;;;;;;;;;4959335;29;20379;-76
2023/06/24 00:23:17;;;;;;;10.70;7.60;;;;;;;;;;4942345;29;20487;-76
2023/06/24 00:25:43;;;;;;;9.00;7.40;;;;;;;;;;4959564;29;20391;-76
2023/06/24 00:28:09;;;;;;;8.80;7.83;;;;;;;;;;4942084;29;20378;-76
2023/06/24 00:30:35;;;;;;;8.63;7.70;;;;;;;;;;4959746;29;20408;-76
2023/06/24 00:33:02;;;;;;;9.70;8.67;;;;;;;;;;4959206;29;20884;-76
2023/06/24 00:35:28;;;;;;;7.63;6.70;;;;;;;;;;4959274;29;20992;-76
2023/06/24 00:37:57;;;;;;;8.60;7.30;;;;;;;;;;4925896;29;20387;-76
2023/06/24 00:40:23;;;;;;;10.47;8.40;;;;;;;;;;4959519;29;20375;-76
2023/06/24 00:42:50;;;;;;;11.07;8.87;;;;;;;;;;4959179;29;20427;-76
2023/06/24 00:45:17;;;;;;;8.47;7.57;;;;;;;;;;4942408;29;20421;-76
2023/06/24 00:47:44;;;;;;;9.77;8.60;;;;;;;;;;4958909;29;20458;-76
2023/06/24 00:50:11;;;;;;;12.03;8.27;;;;;;;;;;4958920;29;20466;-76
2023/06/24 00:52:42;;;;;;;11.40;9.93;;;;;;;;;;4958737;29;20380;-77
2023/06/24 00:55:08;;;;;;;10.40;9.10;;;;;;;;;;4958881;29;20402;-76
2023/06/24 00:57:38;;;;;;;11.47;9.47;;;;;;;;;;4942186;29;20478;-76
2023/06/24 01:00:09;;;;;;;12.13;10.33;;;;;;;;;;4959063;29;20812;-76
2023/06/24 01:02:37;;;;;;;11.70;9.73;;;;;;;;;;4958834;29;21035;-76
2023/06/24 01:05:03;;;;;;;11.80;10.33;;;;;;;;;;4958114;29;20437;-76
2023/06/24 01:07:29;;;;;;;11.73;10.30;;;;;;;;;;4958921;29;20496;-76
2023/06/24 01:09:56;;;;;;;13.60;10.87;;;;;;;;;;4958267;29;20391;-76
2023/06/24 01:12:22;;;;;;;11.20;10.13;;;;;;;;;;4941423;29;20428;-76
2023/06/24 01:14:48;;;;;;;10.70;9.60;;;;;;;;;;4958320;29;20396;-76
2023/06/24 01:17:18;;;;;;;12.90;10.50;;;;;;;;;;4958485;28;20400;-75
2023/06/24 01:20:07;;;;;;;12.93;11.33;;;;;;;;;;4958172;29;20749;-76
2023/06/24 01:22:52;;;;;;;13.20;10.80;;;;;;;;;;4958468;29;20463;-77
2023/06/24 01:25:30;;;;;;;11.40;10.27;;;;;;;;;;4941586;29;20421;-76
2023/06/24 01:27:56;;;;;;;12.30;11.00;;;;;;;;;;4958224;29;20408;-76
2023/06/24 01:30:25;;;;;;;11.97;10.80;;;;;;;;;;4958592;29;20517;-76
2023/06/24 01:32:53;;;;;;;11.90;10.87;;;;;;;;;;4940901;29;20773;-76
2023/06/24 01:35:26;;;;;;;12.63;11.33;;;;;;;;;;4958513;29;21031;-76
2023/06/24 01:37:53;;;;;;;13.73;11.87;;;;;;;;;;4958157;29;20408;-76
2023/06/24 01:40:26;;;;;;;13.00;11.70;;;;;;;;;;4941170;29;20499;-77
2023/06/24 01:42:52;;;;;;;12.87;11.00;;;;;;;;;;4958036;29;20599;-77
2023/06/24 01:45:22;;;;;;;19.97;11.77;;;;;;;;;;4941127;29;20889;-76
2023/06/24 01:47:49;;;;;;;12.90;11.57;;;;;;;;;;4957979;29;20400;-76
2023/06/24 01:50:17;;;;;;;10.83;9.70;;;;;;;;;;4958106;29;20488;-76
2023/06/24 01:52:44;;;;;;;16.40;11.43;;;;;;;;;;4958163;28;20411;-76
2023/06/24 01:55:11;;;;;;;14.57;12.53;;;;;;;;;;4958208;29;20405;-76
2023/06/24 01:57:38;;;;;;;13.43;11.97;;;;;;;;;;4957876;29;20371;-77
2023/06/24 02:00:06;;;;;;;11.87;10.67;;;;;;;;;;4957983;29;20391;-76
2023/06/24 02:02:32;;;;;;;13.73;12.33;;;;;;;;;;4957755;29;20499;-76
2023/06/24 02:04:59;;;;;;;12.90;11.30;;;;;;;;;;4957710;29;20424;-76
2023/06/24 02:07:27;;;;;;;13.17;11.77;;;;;;;;;;4957950;29;20412;-75
2023/06/24 02:09:53;;;;;;;12.20;10.93;;;;;;;;;;4957711;29;20428;-76
2023/06/24 02:12:20;;;;;;;11.37;10.20;;;;;;;;;;4957610;29;20408;-76
2023/06/24 02:14:48;;;;;;;12.93;11.33;;;;;;;;;;4957539;29;20900;-76
2023/06/24 02:17:14;;;;;;;13.47;12.10;;;;;;;;;;4958071;29;20371;-76
2023/06/24 02:19:40;;;;;;;11.73;10.63;;;;;;;;;;4957649;29;20429;-76
2023/06/24 02:22:09;;;;;;;11.70;10.50;;;;;;;;;;4957755;29;20460;-76
2023/06/24 02:24:35;;;;;;;14.10;12.37;;;;;;;;;;4940799;29;20428;-76
2023/06/24 02:27:02;;;;;;;13.20;11.80;;;;;;;;;;4957819;28;20407;-76
2023/06/24 02:29:29;;;;;;;13.10;11.80;;;;;;;;;;4957146;29;20468;-76
2023/06/24 02:31:55;;;;;;;21.70;11.90;;;;;;;;;;4957392;29;20729;-75
2023/06/24 02:34:22;;;;;;;13.77;11.50;;;;;;;;;;4940355;29;20798;-76
2023/06/24 02:36:48;;;;;;;12.90;11.60;;;;;;;;;;4957371;29;20443;-76
2023/06/24 02:39:14;;;;;;;13.50;12.00;;;;;;;;;;4940417;29;20428;-76
2023/06/24 02:41:41;;;;;;;18.27;13.00;;;;;;;;;;4940044;29;20435;-77
2023/06/24 02:44:07;;;;;;;13.30;12.00;;;;;;;;;;4957583;29;20408;-76
2023/06/24 02:46:35;;;;;;;13.20;11.20;;;;;;;;;;4957128;29;20417;-76
2023/06/24 02:49:01;;;;;;;13.57;11.63;;;;;;;;;;4956895;29;20430;-76
2023/06/24 02:51:27;;;;;;;15.00;11.77;;;;;;;;;;4957308;29;20372;-76
2023/06/24 02:53:54;;;;;;;13.30;11.57;;;;;;;;;;4957027;29;20452;-76
2023/06/24 02:56:20;;;;;;;13.60;12.20;;;;;;;;;;4957343;29;20408;-76
2023/06/24 02:58:47;;;;;;;12.17;10.93;;;;;;;;;;4957003;29;20404;-76
2023/06/24 03:01:13;;;;;;;14.33;11.20;;;;;;;;;;4957157;29;20379;-76
2023/06/24 03:03:39;;;;;;;12.10;10.90;;;;;;;;;;4957001;29;20590;-80
2023/06/24 03:06:05;;;;;;;11.80;10.80;;;;;;;;;;4957336;29;20926;-76
2023/06/24 03:08:31;;;;;;;13.33;11.50;;;;;;;;;;4957363;29;20393;-76
2023/06/24 03:10:58;;;;;;;11.23;10.23;;;;;;;;;;4957223;29;20401;-76
2023/06/24 03:13:24;;;;;;;12.00;10.90;;;;;;;;;;4923921;29;20444;-76
2023/06/24 03:15:50;;;;;;;13.60;12.27;;;;;;;;;;4957111;29;20404;-76
2023/06/24 03:18:17;;;;;;;19.83;12.07;;;;;;;;;;4956940;29;20408;-76
2023/06/24 03:20:43;;;;;;;12.87;11.07;;;;;;;;;;4956691;29;20413;-76
2023/06/24 03:23:09;;;;;;;15.70;12.40;;;;;;;;;;4939709;29;20468;-76
2023/06/24 03:25:35;;;;;;;14.87;12.07;;;;;;;;;;4956826;29;20500;-76
2023/06/24 03:28:03;;;;;;;13.30;11.97;;;;;;;;;;4956655;29;20715;-76
2023/06/24 03:30:29;;;;;;;12.60;10.17;;;;;;;;;;4957077;29;20449;-76
2023/06/24 03:32:55;;;;;;;18.97;12.07;;;;;;;;;;4956399;29;20478;-76
2023/06/24 03:35:22;;;;;;;15.00;11.80;;;;;;;;;;4939977;29;20409;-76
2023/06/24 03:37:48;;;;;;;13.20;11.60;;;;;;;;;;4956470;29;20703;-76
2023/06/24 03:40:14;;;;;;;11.37;10.30;;;;;;;;;;4957217;29;20409;-76
2023/06/24 03:42:40;;;;;;;13.40;12.00;;;;;;;;;;4939521;29;20442;-76
2023/06/24 03:45:06;;;;;;;14.70;11.57;;;;;;;;;;4956534;29;20448;-76
2023/06/24 03:47:32;;;;;;;16.40;11.53;;;;;;;;;;4939608;29;20412;-76
2023/06/24 03:49:58;;;;;;;14.83;12.20;;;;;;;;;;4956082;29;20382;-76
2023/06/24 03:52:25;;;;;;;15.73;11.30;;;;;;;;;;4956860;29;20412;-76
2023/06/24 03:54:51;;;;;;;15.73;13.10;;;;;;;;;;4955963;28;20463;-76
2023/06/24 03:57:17;;;;;;;12.60;10.90;;;;;;;;;;4956465;29;20401;-76
2023/06/24 03:59:43;;;;;;;13.00;11.60;;;;;;;;;;4956170;29;20401;-76
2023/06/24 04:02:09;;;;;;;13.93;12.57;;;;;;;;;;4939156;29;20449;-76
2023/06/24 04:04:36;;;;;;;13.17;11.67;;;;;;;;;;4939959;29;20416;-76
2023/06/24 04:07:02;;;;;;;14.37;12.00;;;;;;;;;;4956259;29;20401;-76
2023/06/24 04:09:29;;;;;;;12.37;11.17;;;;;;;;;;4956748;29;20998;-76
2023/06/24 04:11:55;;;;;;;13.23;11.90;;;;;;;;;;4956024;29;20539;-76
2023/06/24 04:14:21;;;;;;;16.47;12.80;;;;;;;;;;4956469;29;20401;-76
2023/06/24 04:16:47;;;;;;;17.57;12.20;;;;;;;;;;4938657;29;20399;-76
2023/06/24 04:19:13;;;;;;;15.97;11.13;;;;;;;;;;4956482;29;20430;-76
2023/06/24 04:21:39;;;;;;;13.73;11.47;;;;;;;;;;4956454;29;20454;-76
2023/06/24 04:24:05;;;;;;;14.43;12.43;;;;;;;;;;4956169;29;20723;-76
2023/06/24 04:26:31;;;;;;;14.50;12.10;;;;;;;;;;4923841;29;20420;-76
2023/06/24 04:28:57;;;;;;;19.13;12.73;;;;;;;;;;4956252;29;20725;-76
2023/06/24 04:31:24;;;;;;;18.83;11.30;;;;;;;;;;4956344;29;20500;-76
2023/06/24 04:33:50;;;;;;;15.23;10.27;;;;;;;;;;4955924;29;20783;-76
2023/06/24 04:36:16;;;;;;;11.80;10.50;;;;;;;;;;4956186;29;20384;-76
2023/06/24 04:38:42;;;;;;;14.43;11.20;;;;;;;;;;4956205;29;20819;-76
2023/06/24 04:41:08;;;;;;;14.93;13.00;;;;;;;;;;4956150;29;20495;-76
2023/06/24 04:43:35;;;;;;;16.03;12.07;;;;;;;;;;4955837;29;20434;-76
2023/06/24 04:46:01;;;;;;;13.93;11.93;;;;;;;;;;4938903;29;20410;-76
2023/06/24 04:48:28;;;;;;;16.30;12.00;;;;;;;;;;4956298;29;20413;-76
2023/06/24 04:50:54;;;;;;;16.13;11.47;;;;;;;;;;4956453;28;20400;-76
2023/06/24 04:53:20;;;;;;;18.23;11.57;;;;;;;;;;4942894;29;20452;-76
2023/06/24 04:55:46;;;;;;;18.23;11.93;;;;;;;;;;4959181;29;20799;-77
2023/06/24 04:58:13;;;;;;;12.30;11.07;;;;;;;;;;4959567;29;20466;-76
2023/06/24 05:00:39;;;;;;;13.03;11.83;;;;;;;;;;4959637;29;20438;-76
2023/06/24 05:03:05;;;;;;;14.30;12.13;;;;;;;;;;4959193;29;20455;-76
2023/06/24 05:05:31;;;;;;;16.87;12.10;;;;;;;;;;4942633;29;20435;-76
2023/06/24 05:07:57;;;;;;;12.57;11.27;;;;;;;;;;4959114;29;20412;-76
2023/06/24 05:10:23;;;;;;;15.57;12.00;;;;;;;;;;4959135;29;20766;-76
2023/06/24 05:12:48;;;;;;;15.87;12.43;;;;;;;;;;4959012;29;20387;-76
2023/06/24 05:15:15;;;;;;;13.77;11.00;;;;;;;;;;4958887;29;20437;-76
2023/06/24 05:17:41;;;;;;;13.97;11.40;;;;;;;;;;4942182;29;20405;-77
2023/06/24 05:20:07;;;;;;;12.60;11.40;;;;;;;;;;4959250;29;20383;-76
2023/06/24 05:22:33;;;;;;;14.07;9.83;;;;;;;;;;4959168;29;20551;-76
2023/06/24 05:24:59;;;;;;;15.20;11.30;;;;;;;;;;4957225;28;20843;-76
2023/06/24 05:27:25;;;;;;;11.70;10.50;;;;;;;;;;4959042;29;20375;-76
2023/06/24 05:29:51;;;;;;;13.73;10.87;;;;;;;;;;4941809;29;20460;-76
2023/06/24 05:32:19;;;;;;;22.13;12.00;;;;;;;;;;4959705;29;20384;-76
2023/06/24 05:34:45;;;;;;;16.30;12.13;;;;;;;;;;4958690;29;20820;-76
2023/06/24 05:37:11;;;;;;;17.10;11.00;;;;;;;;;;4958936;29;20375;-77
2023/06/24 05:39:37;;;;;;;14.30;11.80;;;;;;;;;;4941590;29;20421;-76
2023/06/24 05:42:03;;;;;;;13.30;10.70;;;;;;;;;;4941464;29;20483;-76
2023/06/24 05:44:29;;;;;;;13.63;12.20;;;;;;;;;;4940854;29;20399;-76
2023/06/24 05:46:55;;;;;;;16.60;11.00;;;;;;;;;;4958219;29;20486;-76
2023/06/24 05:49:21;;;;;;;18.07;11.43;;;;;;;;;;4958611;29;20411;-76
2023/06/24 05:51:47;;;;;;;16.53;11.90;;;;;;;;;;4941195;29;20387;-76
2023/06/24 05:54:13;;;;;;;13.50;11.03;;;;;;;;;;4957789;28;20513;-76
2023/06/24 05:56:39;;;;;;;13.87;11.50;;;;;;;;;;4958112;29;20735;-77
2023/06/24 05:59:05;;;;;;;16.30;11.20;;;;;;;;;;4957938;29;20417;-76
2023/06/24 06:01:31;;;;;;;16.33;13.00;;;;;;;;;;4958075;29;20419;-76
2023/06/24 06:03:57;;;;;;;19.23;11.67;;;;;;;;;;4957777;28;20398;-77
2023/06/24 06:06:23;;;;;;;19.10;11.60;;;;;;;;;;4957844;29;20375;-76
2023/06/24 06:08:49;;;;;;;15.80;11.17;;;;;;;;;;4958326;29;20470;-76
2023/06/24 06:11:15;;;;;;;15.30;11.03;;;;;;;;;;4957744;29;20412;-75
2023/06/24 06:13:41;;;;;;;19.00;11.27;;;;;;;;;;4958312;29;20436;-76
2023/06/24 06:16:07;;;;;;;18.57;10.80;;;;;;;;;;4957509;29;20855;-76
2023/06/24 06:18:33;;;;;;;12.97;10.60;;;;;;;;;;4957989;29;20409;-76
2023/06/24 06:20:59;;;;;;;18.87;10.67;;;;;;;;;;4957857;29;20371;-76
2023/06/24 06:23:27;;;;;;;13.60;11.47;;;;;;;;;;4957519;29;21022;-77
2023/06/24 06:25:53;;;;;;;13.73;10.23;;;;;;;;;;4957699;29;20755;-77
2023/06/24 06:28:19;;;;;;;13.20;10.40;;;;;;;;;;4957764;29;20397;-77
2023/06/24 06:30:45;;;;;;;15.20;10.03;;;;;;;;;;4957658;29;20405;-77
2023/06/24 06:33:11;;;;;;;13.60;10.10;;;;;;;;;;4940282;29;20395;-77
2023/06/24 06:35:37;;;;;;;12.43;8.80;;;;;;;;;;4924659;29;20421;-77
2023/06/24 06:38:02;;;;;;;17.00;9.70;;;;;;;;;;4956092;28;20417;-76
2023/06/24 06:40:28;;;;;;;11.93;9.03;;;;;;;;;;4957434;29;20952;-77
2023/06/24 06:42:55;;;;;;;15.27;8.77;;;;;;;;;;4940277;29;20490;-77
2023/06/24 06:45:21;;;;;;;17.83;8.40;;;;;;;;;;4956204;29;20835;-77
2023/06/24 06:47:47;;;;;;;13.90;8.87;;;;;;;;;;4957489;29;20409;-77
2023/06/24 06:50:13;;;;;;;13.50;8.53;;;;;;;;;;4957099;29;20877;-77
2023/06/24 06:52:39;;;;;;;9.80;8.80;;;;;;;;;;4957779;29;20412;-77
2023/06/24 06:55:05;;;;;;;9.70;7.90;;;;;;;;;;4956859;29;20460;-77
2023/06/24 06:57:31;;;;;;;11.60;7.40;;;;;;;;;;4957114;29;20808;-76
2023/06/24 06:59:57;;;;;;;10.00;7.07;;;;;;;;;;4957213;29;20779;-77
2023/06/24 07:02:23;;;;;;;10.80;8.67;;;;;;;;;;4956515;29;20553;-76
2023/06/24 07:04:50;;;;;;;9.47;8.00;;;;;;;;;;4956783;29;20933;-76
2023/06/24 07:07:16;;;;;;;9.93;7.83;;;;;;;;;;4955678;29;20455;-77
2023/06/24 07:09:42;;;;;;;12.80;8.60;;;;;;;;;;4956676;29;20405;-76
2023/06/24 07:12:09;;;;;;;10.13;7.63;;;;;;;;;;4939872;29;20423;-77
2023/06/24 07:14:34;;;;;;;10.00;6.60;;;;;;;;;;4956355;28;20405;-77
2023/06/24 07:17:01;;;;;;;10.40;7.10;;;;;;;;;;4939550;29;20394;-77
2023/06/24 07:19:26;;;;;;;11.40;7.00;;;;;;;;;;4956669;29;20795;-77
2023/06/24 07:21:52;;;;;;;13.23;7.63;;;;;;;;;;4956965;29;20452;-77
2023/06/24 07:24:18;;;;;;;8.53;6.63;;;;;;;;;;4939410;29;20773;-77
2023/06/24 07:26:44;;;;;;;10.90;6.93;;;;;;;;;;4955829;29;20416;-77
2023/06/24 07:29:10;;;;;;;7.60;6.50;;;;;;;;;;4956663;29;20790;-77
2023/06/24 07:31:37;;;;;;;7.20;6.50;;;;;;;;;;4956460;29;20468;-76
2023/06/24 07:34:03;;;;;;;10.97;6.63;;;;;;;;;;4955030;28;20959;-77
2023/06/24 07:36:29;;;;;;;12.33;7.60;;;;;;;;;;4956081;29;20427;-77
2023/06/24 07:38:55;;;;;;;6.50;5.80;;;;;;;;;;4956185;29;20436;-81
2023/06/24 07:41:21;;;;;;;8.53;6.70;;;;;;;;;;4956985;29;20460;-77
2023/06/24 07:43:47;;;;;;;7.37;6.17;;;;;;;;;;4956345;29;21031;-77
2023/06/24 07:46:13;;;;;;;9.37;5.73;;;;;;;;;;4922628;29;20477;-86
2023/06/24 07:48:39;;;;;;;8.93;6.17;;;;;;;;;;4953110;28;20423;-86
2023/06/24 07:51:05;;;;;;;6.00;5.40;;;;;;;;;;4922417;29;20417;-86
2023/06/24 07:53:33;;;;;;;8.40;5.60;;;;;;;;;;4953682;28;20518;-85
2023/06/24 07:55:59;;;;;;;9.07;6.30;;;;;;;;;;4938678;29;20375;-85
2023/06/24 07:58:25;;;;;;;7.00;5.53;;;;;;;;;;4955692;29;20479;-86
2023/06/24 08:00:51;;;;;;;7.67;5.90;;;;;;;;;;4938238;29;20405;-86
2023/06/24 08:03:17;;;;;;;12.47;5.53;;;;;;;;;;4955143;29;20967;-85
2023/06/24 08:05:43;;;;;;;6.93;6.13;;;;;;;;;;4953971;28;20444;-85
2023/06/24 08:08:09;;;;;;;6.40;5.30;;;;;;;;;;4953852;28;20765;-85
2023/06/24 08:10:35;;;;;;;6.60;5.60;;;;;;;;;;4954250;28;20449;-85
2023/06/24 08:13:02;;;;;;;7.10;4.70;;;;;;;;;;4937958;29;20439;-85
2023/06/24 08:15:28;;;;;;;5.00;4.50;;;;;;;;;;4955514;29;20419;-85
2023/06/24 08:17:54;;;;;;;7.57;4.80;;;;;;;;;;4938088;29;20401;-85
2023/06/24 08:20:23;;;;;;;9.37;6.13;;;;;;;;;;4954771;29;20436;-85
2023/06/24 08:22:49;;;;;;;6.47;5.10;;;;;;;;;;4955016;29;20812;-86
2023/06/24 08:25:15;;;;;;;5.83;5.33;;;;;;;;;;4953683;28;20516;-82
2023/06/24 08:27:43;;;;;;;8.93;6.10;;;;;;;;;;4958189;29;20405;-85
2023/06/24 08:30:09;;;;;;;8.33;6.90;;;;;;;;;;4941842;29;20885;-85
2023/06/24 08:32:35;;;;;;;7.87;5.40;;;;;;;;;;4925211;29;20456;-86
2023/06/24 08:35:01;;;;;;;7.77;5.97;;;;;;;;;;4924861;29;21048;-85
2023/06/24 08:37:27;;;;;;;5.50;4.97;;;;;;;;;;4925246;29;20408;-86
2023/06/24 08:39:53;;;;;;;7.13;5.10;;;;;;;;;;4958222;29;20456;-87
2023/06/24 08:42:19;;;;;;;7.90;6.40;;;;;;;;;;4924690;29;20463;-86
2023/06/24 08:44:45;;;;;;;6.53;5.30;;;;;;;;;;4956710;28;20456;-86
2023/06/24 08:47:14;;;;;;;10.40;8.57;;;;;;;;;;4956635;28;20400;-85
2023/06/24 08:49:46;;;;;;;10.03;7.13;;;;;;;;;;4956497;29;20416;-85
2023/06/24 08:52:14;;;;;;;11.40;6.20;;;;;;;;;;4958050;29;20884;-86
2023/06/24 08:54:41;;;;;;;7.60;6.40;;;;;;;;;;4956106;28;20490;-87
2023/06/24 08:57:10;;;;;;;7.37;6.63;;;;;;;;;;4957671;29;20408;-86
2023/06/24 08:59:38;;;;;;;7.60;6.63;;;;;;;;;;4948575;29;20450;-86
2023/06/24 09:02:04;;;;;;;9.70;7.50;;;;;;;;;;4959367;29;20459;-86
2023/06/24 09:04:30;;;;;;;7.90;6.83;;;;;;;;;;4942508;29;20417;-86
2023/06/24 09:06:56;;;;;;;7.60;6.27;;;;;;;;;;4925679;29;20409;-86
2023/06/24 09:09:23;;;;;;;9.80;6.97;;;;;;;;;;4957395;29;20401;-88
2023/06/24 09:11:56;;;;;;;8.40;7.00;;;;;;;;;;4961398;29;20396;-86
2023/06/24 09:14:22;;;;;;;7.87;7.07;;;;;;;;;;4960205;28;20416;-87
2023/06/24 09:16:55;;;;;;;8.17;6.90;;;;;;;;;;4959169;28;20412;-86
2023/06/24 09:19:25;;;;;;;9.27;8.33;;;;;;;;;;4959038;28;20471;-86
2023/06/24 09:21:54;;;;;;;8.60;7.17;;;;;;;;;;4961592;29;20551;-86
2023/06/24 09:24:20;;;;;;;8.40;5.40;;;;;;;;;;4959306;29;20413;-86
2023/06/24 09:26:49;;;;;;;8.83;5.43;;;;;;;;;;4959682;29;20409;-86
2023/06/24 09:29:15;;;;;;;6.37;5.40;;;;;;;;;;4944140;29;20500;-87
2023/06/24 09:31:55;;;;;;;7.23;5.70;;;;;;;;;;4961092;28;20411;-86
2023/06/24 09:34:22;;;;;;;7.40;4.53;;;;;;;;;;4957004;29;20428;-86
2023/06/24 09:36:52;;;;;;;9.80;6.20;;;;;;;;;;4939535;29;20996;-86
2023/06/24 09:39:18;;;;;;;8.03;5.43;;;;;;;;;;4956245;29;20421;-86
2023/06/24 09:41:49;;;;;;;7.30;5.30;;;;;;;;;;4940446;29;20495;-86
2023/06/24 09:44:16;;;;;;;7.73;5.50;;;;;;;;;;4956395;29;20421;-86
2023/06/24 09:46:43;;;;;;;7.57;6.37;;;;;;;;;;4956094;29;20404;-87
2023/06/24 09:49:09;;;;;;;9.43;5.70;;;;;;;;;;4940196;29;20459;-86
2023/06/24 09:51:38;;;;;;;8.00;4.80;;;;;;;;;;4957149;29;20780;-86
2023/06/24 09:54:07;;;;;;;5.77;4.73;;;;;;;;;;4955789;29;20986;-85
2023/06/24 09:56:37;;;;;;;4.77;4.27;;;;;;;;;;4955912;28;20420;-86
2023/06/24 09:59:04;;;;;;;8.10;3.77;;;;;;;;;;4957289;29;20432;-86
2023/06/24 10:01:39;;;;;;;6.60;5.30;;;;;;;;;;4957016;29;20404;-86
2023/06/24 10:04:08;;;;;;;9.60;3.87;;;;;;;;;;4957079;29;20440;-85
2023/06/24 10:06:34;;;;;;;8.20;3.80;;;;;;;;;;4939776;29;20492;-86
2023/06/24 10:09:01;;;;;;;5.77;4.07;;;;;;;;;;4955568;28;20417;-86
2023/06/24 10:11:28;;;;;;;6.77;5.10;;;;;;;;;;4956590;29;20408;-86
2023/06/24 10:13:57;;;;;;;7.80;4.20;;;;;;;;;;4939859;29;20759;-86
2023/06/24 10:16:23;;;;;;;8.43;4.03;;;;;;;;;;4956809;29;20460;-86
2023/06/24 10:18:49;;;;;;;7.50;3.90;;;;;;;;;;4955555;28;20408;-86
2023/06/24 10:21:19;;;;;;;5.63;4.40;;;;;;;;;;4955278;29;20528;-86
2023/06/24 10:23:54;;;;;;;9.57;4.50;;;;;;;;;;4957169;29;20451;-86
2023/06/24 10:26:23;;;;;;;7.70;3.97;;;;;;;;;;4956298;29;20420;-87
2023/06/24 10:29:07;;;;;;;7.33;3.80;;;;;;;;;;4956440;29;20405;-87
2023/06/24 10:31:52;;;;;;;5.87;3.70;;;;;;;;;;4955000;28;20421;-86
2023/06/24 10:34:28;;;;;;;13.60;4.77;;;;;;;;;;4954934;28;20919;-86
2023/06/24 10:36:55;;;;;;;4.50;3.50;;;;;;;;;;4955332;29;20413;-86
2023/06/24 10:39:37;;;;;;;6.47;3.80;;;;;;;;;;4954965;29;20413;-86
2023/06/24 10:42:35;;;;;;;4.80;3.80;;;;;;;;;;4923144;29;20555;-86
2023/06/24 10:45:16;;;;;;;4.90;4.10;;;;;;;;;;4922666;29;20472;-86
2023/06/24 10:47:43;;;;;;;4.53;4.13;;;;;;;;;;4954824;29;20456;-86
2023/06/24 10:50:10;;;;;;;5.77;4.70;;;;;;;;;;4953683;28;20419;-86
2023/06/24 10:52:40;;;;;;;9.80;4.80;;;;;;;;;;4954622;28;20420;-86
2023/06/24 10:55:07;;;;;;;7.40;4.83;;;;;;;;;;4954889;28;20444;-86
2023/06/24 10:57:33;;;;;;;5.20;4.20;;;;;;;;;;4954755;28;20519;-86
2023/06/24 10:59:59;;;;;;;5.23;4.50;;;;;;;;;;4955859;29;20397;-87
2023/06/24 11:02:26;;;;;;;4.37;3.83;;;;;;;;;;4922540;29;20538;-77
2023/06/24 11:04:59;;;;;;;4.63;3.80;;;;;;;;;;4956026;29;20416;-77
2023/06/24 11:07:26;;;;;;;10.90;4.83;;;;;;;;;;4955633;29;20408;-76
2023/06/24 11:09:56;;;;;;;7.33;4.23;;;;;;;;;;4955594;29;20397;-77
2023/06/24 11:12:26;;;;;;;8.47;3.90;;;;;;;;;;4955606;29;20952;-77
2023/06/24 11:14:56;;;;;;;7.50;3.80;;;;;;;;;;4955603;29;20400;-77
2023/06/24 11:17:22;;;;;;;5.00;3.50;;;;;;;;;;4955253;29;20919;-77
2023/06/24 11:19:48;;;;;;;6.00;4.33;;;;;;;;;;4955807;29;20397;-77
2023/06/24 11:22:14;;;;;;;6.70;4.40;;;;;;;;;;4955261;29;20456;-77
2023/06/24 11:24:41;;;;;;;5.50;3.90;;;;;;;;;;4955604;29;20412;-77
2023/06/24 11:27:07;;;;;;;4.77;3.50;;;;;;;;;;4955392;29;20780;-77
2023/06/24 11:29:34;;;;;;;4.10;3.33;;;;;;;;;;4955138;29;20408;-77
2023/06/24 11:32:01;;;;;;;4.63;3.97;;;;;;;;;;4955144;29;20401;-78
2023/06/24 11:34:27;;;;;;;6.30;3.80;;;;;;;;;;4955009;29;20408;-77
2023/06/24 11:36:53;;;;;;;6.90;4.40;;;;;;;;;;4953982;28;20528;-77
2023/06/24 11:39:22;;;;;;;4.90;3.80;;;;;;;;;;4954986;29;20413;-77
2023/06/24 11:41:48;;;;;;;8.13;4.70;;;;;;;;;;4938173;29;20405;-77
2023/06/24 11:44:14;;;;;;;7.33;4.50;;;;;;;;;;4954977;29;20409;-76
2023/06/24 11:46:41;;;;;;;4.30;3.90;;;;;;;;;;4955028;29;20411;-76
2023/06/24 11:49:07;;;;;;;5.43;4.70;;;;;;;;;;4954124;28;20409;-77
2023/06/24 11:51:34;;;;;;;6.70;4.60;;;;;;;;;;4954987;29;20761;-77
2023/06/24 11:54:01;;;;;;;3.80;3.40;;;;;;;;;;4954978;29;20468;-77
2023/06/24 11:56:36;;;;;;;5.47;3.37;;;;;;;;;;4953570;29;20420;-76
2023/06/24 11:59:05;;;;;;;4.37;3.50;;;;;;;;;;4954963;29;20819;-77
2023/06/24 12:01:37;;;;;;;4.50;3.77;;;;;;;;;;4956474;28;20412;-77
2023/06/24 12:04:10;;;;;;;3.33;3.03;;;;;;;;;;4958987;29;20948;-77
2023/06/24 12:06:36;;;;;;;4.23;3.47;;;;;;;;;;4958964;29;20397;-77
2023/06/24 12:09:02;;;;;;;4.13;3.57;;;;;;;;;;4958853;29;20403;-76
2023/06/24 12:11:28;;;;;;;5.60;3.70;;;;;;;;;;4958548;29;20412;-77
2023/06/24 12:13:54;;;;;;;7.10;3.40;;;;;;;;;;4941922;29;20401;-76
2023/06/24 12:16:22;;;;;;;3.33;3.03;;;;;;;;;;4958614;29;20419;-77
2023/06/24 12:18:49;;;;;;;3.27;2.97;;;;;;;;;;4958735;29;20416;-77
2023/06/24 12:21:15;;;;;;;3.70;3.17;;;;;;;;;;4958594;29;20400;-77
2023/06/24 12:23:41;;;;;;;4.50;3.67;;;;;;;;;;4958381;29;20855;-77
2023/06/24 12:26:07;;;;;;;4.20;3.20;;;;;;;;;;4953504;29;20519;-77
2023/06/24 12:28:33;;;;;;;3.30;2.83;;;;;;;;;;4934606;29;20424;-77
2023/06/24 12:30:59;;;;;;;5.13;3.40;;;;;;;;;;4947976;29;20472;-76
2023/06/24 12:33:25;;;;;;;5.63;3.43;;;;;;;;;;4948147;29;20435;-77
2023/06/24 12:35:51;;;;;;;4.53;3.43;;;;;;;;;;4952304;29;20455;-76
2023/06/24 12:38:17;;;;;;;3.87;3.57;;;;;;;;;;4958004;29;20939;-78
2023/06/24 12:40:43;;;;;;;3.43;3.13;;;;;;;;;;4958135;29;20432;-79
2023/06/24 12:43:09;;;;;;;4.93;3.30;;;;;;;;;;4957222;29;20456;-78
2023/06/24 12:45:35;;;;;;;3.77;3.17;;;;;;;;;;4951884;29;20412;-77
2023/06/24 12:48:01;;;;;;;3.57;3.27;;;;;;;;;;4957708;29;20413;-76
2023/06/24 12:50:31;;;;;;;5.50;3.50;;;;;;;;;;4957691;29;20401;-77
2023/06/24 12:52:57;;;;;;;3.30;2.80;;;;;;;;;;4956919;28;20412;-77
2023/06/24 12:55:23;;;;;;;4.77;3.83;;;;;;;;;;4957530;29;20725;-77
2023/06/24 12:57:49;;;;;;;2.93;2.43;;;;;;;;;;4957761;29;20408;-75
2023/06/24 13:00:16;;;;;;;4.43;3.20;;;;;;;;;;4956798;29;20552;-76
2023/06/24 13:02:42;;;;;;;3.40;3.10;;;;;;;;;;4957603;29;20467;-76
2023/06/24 13:05:08;;;;;;;4.17;2.50;;;;;;;;;;4957549;29;20412;-76
2023/06/24 13:07:35;;;;;;;4.57;2.90;;;;;;;;;;4956518;29;20759;-76
2023/06/24 13:10:01;;;;;;;3.27;3.00;;;;;;;;;;4957576;29;20468;-76
2023/06/24 13:12:27;;;;;;;5.13;3.13;;;;;;;;;;4956551;28;20751;-76
2023/06/24 13:14:53;;;;;;;3.50;3.20;;;;;;;;;;4956467;29;20408;-76
2023/06/24 13:17:19;;;;;;;3.20;2.90;;;;;;;;;;4956982;29;20427;-75
2023/06/24 13:19:45;;;;;;;5.00;2.70;;;;;;;;;;4957536;29;20460;-76
2023/06/24 13:22:11;;;;;;;3.77;3.23;;;;;;;;;;4956426;29;20543;-77
2023/06/24 13:24:37;;;;;;;4.53;3.10;;;;;;;;;;4956937;29;20404;-77
2023/06/24 13:27:03;;;;;;;4.23;3.10;;;;;;;;;;4957326;29;20424;-77
2023/06/24 13:29:29;;;;;;;6.07;2.80;;;;;;;;;;4956543;29;20405;-76
2023/06/24 13:31:55;;;;;;;4.40;2.40;;;;;;;;;;4957146;29;20429;-75
2023/06/24 13:34:21;;;;;;;3.17;2.80;;;;;;;;;;4957276;29;20427;-75
2023/06/24 13:36:47;;;;;;;3.67;2.63;;;;;;;;;;4956192;29;20748;-75
2023/06/24 13:39:16;;;;;;;2.80;2.57;;;;;;;;;;4956974;29;20416;-75
2023/06/24 13:41:42;;;;;;;2.77;2.50;;;;;;;;;;4940398;29;20405;-74
2023/06/24 13:44:09;;;;;;;3.37;2.70;;;;;;;;;;4956061;29;20411;-75
2023/06/24 13:46:35;;;;;;;4.40;2.77;;;;;;;;;;4952301;29;20457;-76
2023/06/24 13:49:02;;;;;;;3.03;2.73;;;;;;;;;;4957039;29;20412;-77
2023/06/24 13:51:28;;;;;;;2.77;2.50;;;;;;;;;;4955689;29;20885;-77
2023/06/24 13:53:55;;;;;;;2.67;2.47;;;;;;;;;;4956676;28;20464;-74
2023/06/24 13:56:21;;;;;;;3.30;3.00;;;;;;;;;;4956588;29;20392;-75
2023/06/24 13:58:47;;;;;;;2.80;2.60;;;;;;;;;;4956398;29;20411;-75
2023/06/24 14:01:14;;;;;;;3.20;2.80;;;;;;;;;;4956741;29;20405;-75
2023/06/24 14:03:40;;;;;;;2.83;2.30;;;;;;;;;;4956512;29;20488;-76
2023/06/24 14:06:06;;;;;;;2.93;2.40;;;;;;;;;;4955708;29;20480;-76
2023/06/24 14:08:32;;;;;;;3.00;2.30;;;;;;;;;;4956175;29;20797;-76
2023/06/24 14:10:59;;;;;;;2.60;2.40;;;;;;;;;;4956563;29;20459;-76
2023/06/24 14:13:26;;;;;;;3.50;2.67;;;;;;;;;;4955055;29;20931;-76
2023/06/24 14:15:52;;;;;;;2.90;2.07;;;;;;;;;;4956428;29;20451;-77
2023/06/24 14:18:18;;;;;;;2.50;2.30;;;;;;;;;;4956505;29;20441;-79
2023/06/24 14:20:44;;;;;;;2.40;2.20;;;;;;;;;;4955410;29;20405;-77
2023/06/24 14:23:10;;;;;;;3.13;2.70;;;;;;;;;;4955985;28;20820;-76
2023/06/24 14:25:37;;;;;;;2.47;2.27;;;;;;;;;;4939189;29;20889;-76
2023/06/24 14:28:03;;;;;;;4.13;2.40;;;;;;;;;;4955215;29;20467;-76
2023/06/24 14:30:29;;;;;;;2.73;2.37;;;;;;;;;;4955824;29;20409;-76